createdAt,value
2023-03-15T00:00:36.671Z,998.7
2023-03-15T00:01:40.020Z,998.7
2023-03-15T00:02:43.926Z,998.8
2023-03-15T00:03:47.130Z,998.8
2023-03-15T00:04:50.346Z,998.8
2023-03-15T00:05:54.106Z,998.8
2023-03-15T00:06:57.069Z,998.8
2023-03-15T00:08:04.366Z,998.8
2023-03-15T00:09:07.356Z,998.9
2023-03-15T00:10:10.368Z,998.9
2023-03-15T00:11:12.556Z,998.9
2023-03-15T00:12:15.353Z,998.9
2023-03-15T00:13:18.725Z,999
2023-03-15T00:14:22.429Z,999
2023-03-15T00:15:25.511Z,999
2023-03-15T00:16:28.218Z,999
2023-03-15T00:17:31.972Z,999
2023-03-15T00:18:35.132Z,999.1
2023-03-15T00:19:38.202Z,999.1
2023-03-15T00:20:40.902Z,999
2023-03-15T00:21:43.689Z,999.1
2023-03-15T00:22:47.496Z,999.1
2023-03-15T00:23:51.742Z,999
2023-03-15T00:24:54.908Z,999.1
2023-03-15T00:25:57.888Z,999.1
2023-03-15T00:27:00.135Z,999.1
2023-03-15T00:28:02.649Z,999.2
2023-03-15T00:29:05.797Z,999.2
2023-03-15T00:30:08.824Z,999.2
2023-03-15T00:31:12.220Z,999.2
2023-03-15T00:32:16.124Z,999.3
2023-03-15T00:33:19.476Z,999.3
2023-03-15T00:34:22.932Z,999.3
2023-03-15T00:35:25.477Z,999.3
2023-03-15T00:36:28.302Z,999.3
2023-03-15T00:37:31.091Z,999.3
2023-03-15T00:38:33.834Z,999.3
2023-03-15T00:39:38.082Z,999.3
2023-03-15T00:40:41.546Z,999.3
2023-03-15T00:41:44.946Z,999.3
2023-03-15T00:42:48.028Z,999.3
2023-03-15T00:43:51.421Z,999.4
2023-03-15T00:44:55.152Z,999.4
2023-03-15T00:45:58.688Z,999.4
2023-03-15T00:47:01.468Z,999.4
2023-03-15T00:48:04.363Z,999.4
2023-03-15T00:49:06.815Z,999.5
2023-03-15T00:50:09.542Z,999.5
2023-03-15T00:51:12.027Z,999.5
2023-03-15T00:52:15.417Z,999.5
2023-03-15T00:53:17.971Z,999.6
2023-03-15T00:54:21.619Z,999.6
2023-03-15T00:55:25.800Z,999.6
2023-03-15T00:56:28.705Z,999.6
2023-03-15T00:57:32.034Z,999.7
2023-03-15T00:58:35.199Z,999.7
2023-03-15T00:59:38.892Z,999.7
2023-03-15T01:00:41.998Z,999.7
2023-03-15T01:01:45.100Z,999.8
2023-03-15T01:02:48.680Z,999.7
2023-03-15T01:03:52.162Z,999.7
2023-03-15T01:04:55.561Z,999.8
2023-03-15T01:05:58.704Z,999.8
2023-03-15T01:07:01.794Z,999.8
2023-03-15T01:08:04.953Z,999.9
2023-03-15T01:09:07.691Z,999.8
2023-03-15T01:10:10.713Z,999.8
2023-03-15T01:11:14.899Z,999.8
2023-03-15T01:12:17.899Z,999.8
2023-03-15T01:13:21.343Z,999.8
2023-03-15T01:14:24.137Z,999.9
2023-03-15T01:15:26.669Z,999.9
2023-03-15T01:16:30.657Z,999.9
2023-03-15T01:17:33.628Z,999.9
2023-03-15T01:18:37.670Z,999.9
2023-03-15T01:19:40.429Z,999.9
2023-03-15T01:20:43.818Z,999.9
2023-03-15T01:21:47.108Z,999.9
2023-03-15T01:22:49.814Z,999.9
2023-03-15T01:23:53.166Z,999.9
2023-03-15T01:24:55.922Z,999.9
2023-03-15T01:25:58.717Z,999.9
2023-03-15T01:27:02.867Z,999.9
2023-03-15T01:28:05.653Z,1000
2023-03-15T01:29:08.681Z,1000
2023-03-15T01:30:11.780Z,1000
2023-03-15T01:31:15.399Z,1000
2023-03-15T01:32:19.138Z,1000
2023-03-15T01:33:23.487Z,1000
2023-03-15T01:34:26.560Z,1000.1
2023-03-15T01:35:29.757Z,1000
2023-03-15T01:36:33.360Z,1000
2023-03-15T01:37:36.648Z,1000
2023-03-15T01:38:40.095Z,1000
2023-03-15T01:39:42.894Z,1000
2023-03-15T01:40:46.299Z,1000
2023-03-15T01:41:49.324Z,1000
2023-03-15T01:42:53.549Z,1000
2023-03-15T01:43:57.347Z,1000.1
2023-03-15T01:45:00.429Z,1000
2023-03-15T01:46:03.479Z,1000.1
2023-03-15T01:47:06.718Z,1000
2023-03-15T01:48:09.905Z,1000
2023-03-15T01:49:13.107Z,1000.1
2023-03-15T01:50:16.517Z,1000.1
2023-03-15T01:51:19.601Z,1000.1
2023-03-15T01:52:22.994Z,1000.1
2023-03-15T01:53:26.359Z,1000.1
2023-03-15T01:54:28.831Z,1000.2
2023-03-15T01:55:31.922Z,1000.2
2023-03-15T01:56:35.057Z,1000.2
2023-03-15T01:57:38.499Z,1000.3
2023-03-15T01:58:42.832Z,1000.2
2023-03-15T01:59:45.905Z,1000.3
2023-03-15T02:00:49.103Z,1000.3
2023-03-15T02:01:52.134Z,1000.3
2023-03-15T02:02:55.674Z,1000.2
2023-03-15T02:03:58.382Z,1000.3
2023-03-15T02:05:00.569Z,1000.2
2023-03-15T02:06:03.727Z,1000.3
2023-03-15T02:07:06.999Z,1000.3
2023-03-15T02:08:09.748Z,1000.3
2023-03-15T02:09:13.503Z,1000.3
2023-03-15T02:10:16.673Z,1000.3
2023-03-15T02:11:20.324Z,1000.3
2023-03-15T02:12:23.146Z,1000.4
2023-03-15T02:13:26.294Z,1000.3
2023-03-15T02:14:30.613Z,1000.4
2023-03-15T02:15:33.713Z,1000.4
2023-03-15T02:16:36.588Z,1000.4
2023-03-15T02:17:39.994Z,1000.4
2023-03-15T02:18:43.047Z,1000.5
2023-03-15T02:19:45.601Z,1000.4
2023-03-15T02:20:48.609Z,1000.4
2023-03-15T02:21:51.950Z,1000.5
2023-03-15T02:22:54.855Z,1000.5
2023-03-15T02:23:58.792Z,1000.5
2023-03-15T02:25:02.134Z,1000.5
2023-03-15T02:26:05.520Z,1000.5
2023-03-15T02:27:08.064Z,1000.5
2023-03-15T02:28:11.217Z,1000.6
2023-03-15T02:29:14.349Z,1000.6
2023-03-15T02:30:18.641Z,1000.6
2023-03-15T02:31:21.494Z,1000.6
2023-03-15T02:32:24.953Z,1000.7
2023-03-15T02:33:28.203Z,1000.6
2023-03-15T02:34:31.477Z,1000.6
2023-03-15T02:35:34.754Z,1000.7
2023-03-15T02:36:37.678Z,1000.7
2023-03-15T02:37:41.193Z,1000.7
2023-03-15T02:38:44.536Z,1000.7
2023-03-15T02:39:47.537Z,1000.7
2023-03-15T02:40:51.266Z,1000.7
2023-03-15T02:41:54.988Z,1000.7
2023-03-15T02:42:58.180Z,1000.7
2023-03-15T02:44:01.992Z,1000.7
2023-03-15T02:45:05.380Z,1000.7
2023-03-15T02:46:09.798Z,1000.7
2023-03-15T02:47:13.335Z,1000.7
2023-03-15T02:48:16.121Z,1000.7
2023-03-15T02:49:19.630Z,1000.7
2023-03-15T02:50:22.075Z,1000.8
2023-03-15T02:51:25.507Z,1000.8
2023-03-15T02:52:27.977Z,1000.8
2023-03-15T02:53:31.398Z,1000.8
2023-03-15T02:54:34.097Z,1000.8
2023-03-15T02:55:37.419Z,1000.9
2023-03-15T02:56:40.344Z,1000.9
2023-03-15T02:57:43.411Z,1000.9
2023-03-15T02:58:46.292Z,1000.9
2023-03-15T02:59:49.140Z,1001
2023-03-15T03:00:52.274Z,1001
2023-03-15T03:01:56.981Z,1001
2023-03-15T03:03:00.275Z,1001
2023-03-15T03:04:02.272Z,1000.9
2023-03-15T03:05:05.360Z,1001
2023-03-15T03:06:07.514Z,1001
2023-03-15T03:07:10.268Z,1001
2023-03-15T03:08:13.359Z,1001
2023-03-15T03:09:16.496Z,1001
2023-03-15T03:10:19.944Z,1001.1
2023-03-15T03:11:24.043Z,1001.1
2023-03-15T03:12:27.027Z,1001.1
2023-03-15T03:13:29.179Z,1001.1
2023-03-15T03:14:32.610Z,1001.1
2023-03-15T03:15:36.205Z,1001.1
2023-03-15T03:16:39.134Z,1001.1
2023-03-15T03:17:43.505Z,1001.2
2023-03-15T03:18:46.440Z,1001.2
2023-03-15T03:19:48.876Z,1001.2
2023-03-15T03:20:51.091Z,1001.2
2023-03-15T03:21:54.205Z,1001.3
2023-03-15T03:22:56.662Z,1001.2
2023-03-15T03:24:00.100Z,1001.3
2023-03-15T03:25:03.116Z,1001.3
2023-03-15T03:26:05.847Z,1001.3
2023-03-15T03:27:08.630Z,1001.3
2023-03-15T03:28:12.139Z,1001.3
2023-03-15T03:29:15.767Z,1001.3
2023-03-15T03:30:19.731Z,1001.4
2023-03-15T03:31:23.249Z,1001.4
2023-03-15T03:32:26.420Z,1001.4
2023-03-15T03:33:30.961Z,1001.4
2023-03-15T03:34:34.041Z,1001.4
2023-03-15T03:35:37.330Z,1001.4
2023-03-15T03:36:40.907Z,1001.5
2023-03-15T03:37:43.611Z,1001.5
2023-03-15T03:38:46.418Z,1001.5
2023-03-15T03:39:49.524Z,1001.6
2023-03-15T03:40:51.682Z,1001.6
2023-03-15T03:41:55.287Z,1001.7
2023-03-15T03:42:58.259Z,1001.8
2023-03-15T03:44:00.708Z,1001.7
2023-03-15T03:45:04.103Z,1001.8
2023-03-15T03:46:07.079Z,1001.8
2023-03-15T03:47:10.933Z,1001.8
2023-03-15T03:48:13.794Z,1001.8
2023-03-15T03:49:17.993Z,1001.8
2023-03-15T03:50:21.119Z,1001.9
2023-03-15T03:51:24.444Z,1001.8
2023-03-15T03:52:27.847Z,1001.9
2023-03-15T03:53:30.574Z,1001.9
2023-03-15T03:54:33.853Z,1001.9
2023-03-15T03:55:36.943Z,1001.9
2023-03-15T03:56:39.382Z,1001.9
2023-03-15T03:57:43.021Z,1001.9
2023-03-15T03:58:46.093Z,1001.9
2023-03-15T03:59:48.920Z,1001.9
2023-03-15T04:00:51.095Z,1001.9
2023-03-15T04:01:54.450Z,1001.9
2023-03-15T04:02:57.562Z,1001.9
2023-03-15T04:04:00.628Z,1001.9
2023-03-15T04:05:04.894Z,1001.9
2023-03-15T04:06:08.334Z,1001.9
2023-03-15T04:07:11.417Z,1001.9
2023-03-15T04:08:17.132Z,1002
2023-03-15T04:09:20.191Z,1002
2023-03-15T04:10:23.274Z,1002
2023-03-15T04:11:26.350Z,1002
2023-03-15T04:12:30.217Z,1002.1
2023-03-15T04:13:34.013Z,1002
2023-03-15T04:14:37.185Z,1002
2023-03-15T04:15:40.509Z,1002
2023-03-15T04:16:43.914Z,1002.1
2023-03-15T04:17:46.712Z,1002
2023-03-15T04:18:49.556Z,1002.1
2023-03-15T04:19:52.762Z,1002.1
2023-03-15T04:20:57.005Z,1002.2
2023-03-15T04:21:59.795Z,1002.2
2023-03-15T04:23:03.254Z,1002.1
2023-03-15T04:24:06.285Z,1002.2
2023-03-15T04:25:08.784Z,1002.2
2023-03-15T04:26:12.119Z,1002.3
2023-03-15T04:27:15.582Z,1002.2
2023-03-15T04:28:18.338Z,1002.3
2023-03-15T04:29:21.432Z,1002.3
2023-03-15T04:30:24.500Z,1002.3
2023-03-15T04:31:27.833Z,1002.3
2023-03-15T04:32:30.824Z,1002.3
2023-03-15T04:33:34.324Z,1002.3
2023-03-15T04:34:38.332Z,1002.3
2023-03-15T04:35:42.398Z,1002.3
2023-03-15T04:36:46.839Z,1002.3
2023-03-15T04:37:49.985Z,1002.3
2023-03-15T04:38:52.448Z,1002.2
2023-03-15T04:39:55.931Z,1002.3
2023-03-15T04:40:59.215Z,1002.3
2023-03-15T04:42:02.217Z,1002.3
2023-03-15T04:43:04.785Z,1002.3
2023-03-15T04:44:07.938Z,1002.3
2023-03-15T04:45:10.749Z,1002.3
2023-03-15T04:46:13.326Z,1002.3
2023-03-15T04:47:16.363Z,1002.4
2023-03-15T04:48:19.372Z,1002.4
2023-03-15T04:49:22.989Z,1002.4
2023-03-15T04:50:25.430Z,1002.4
2023-03-15T04:51:28.507Z,1002.4
2023-03-15T04:52:33.030Z,1002.4
2023-03-15T04:53:35.746Z,1002.4
2023-03-15T04:54:38.915Z,1002.5
2023-03-15T04:55:42.071Z,1002.5
2023-03-15T04:56:45.477Z,1002.5
2023-03-15T04:57:48.037Z,1002.5
2023-03-15T04:58:51.379Z,1002.5
2023-03-15T04:59:54.034Z,1002.5
2023-03-15T05:00:57.566Z,1002.5
2023-03-15T05:02:03.974Z,1002.6
2023-03-15T05:03:07.336Z,1002.6
2023-03-15T05:04:10.712Z,1002.6
2023-03-15T05:05:13.700Z,1002.6
2023-03-15T05:06:16.505Z,1002.6
2023-03-15T05:07:19.526Z,1002.7
2023-03-15T05:08:23.718Z,1002.7
2023-03-15T05:09:26.488Z,1002.7
2023-03-15T05:10:29.330Z,1002.7
2023-03-15T05:11:32.409Z,1002.7
2023-03-15T05:12:35.453Z,1002.7
2023-03-15T05:13:38.944Z,1002.7
2023-03-15T05:14:42.189Z,1002.7
2023-03-15T05:15:45.317Z,1002.7
2023-03-15T05:16:47.915Z,1002.8
2023-03-15T05:17:51.543Z,1002.8
2023-03-15T05:18:54.605Z,1002.8
2023-03-15T05:19:57.970Z,1002.8
2023-03-15T05:21:00.955Z,1002.8
2023-03-15T05:22:04.366Z,1002.8
2023-03-15T05:23:07.874Z,1002.8
2023-03-15T05:24:12.103Z,1002.9
2023-03-15T05:25:14.832Z,1002.9
2023-03-15T05:26:18.186Z,1002.9
2023-03-15T05:27:20.657Z,1002.9
2023-03-15T05:28:23.481Z,1003
2023-03-15T05:29:26.673Z,1003
2023-03-15T05:30:30.003Z,1003
2023-03-15T05:31:33.550Z,1003.1
2023-03-15T05:32:36.281Z,1003.1
2023-03-15T05:33:39.429Z,1003.2
2023-03-15T05:34:41.964Z,1003.2
2023-03-15T05:35:45.526Z,1003.2
2023-03-15T05:36:48.933Z,1003.2
2023-03-15T05:37:51.630Z,1003.2
2023-03-15T05:38:54.447Z,1003.2
2023-03-15T05:39:58.821Z,1003.3
2023-03-15T05:41:01.906Z,1003.3
2023-03-15T05:42:04.647Z,1003.3
2023-03-15T05:43:07.511Z,1003.3
2023-03-15T05:44:11.165Z,1003.3
2023-03-15T05:45:14.895Z,1003.3
2023-03-15T05:46:17.833Z,1003.3
2023-03-15T05:47:20.852Z,1003.3
2023-03-15T05:48:23.900Z,1003.4
2023-03-15T05:49:27.080Z,1003.4
2023-03-15T05:50:30.532Z,1003.4
2023-03-15T05:51:33.218Z,1003.5
2023-03-15T05:52:35.930Z,1003.5
2023-03-15T05:53:39.422Z,1003.5
2023-03-15T05:54:42.925Z,1003.5
2023-03-15T05:55:47.093Z,1003.5
2023-03-15T05:56:50.561Z,1003.4
2023-03-15T05:57:53.290Z,1003.5
2023-03-15T05:58:56.358Z,1003.5
2023-03-15T05:59:59.805Z,1003.5
2023-03-15T06:01:03.089Z,1003.6
2023-03-15T06:02:06.194Z,1003.5
2023-03-15T06:03:08.993Z,1003.6
2023-03-15T06:04:12.610Z,1003.6
2023-03-15T06:05:15.577Z,1003.6
2023-03-15T06:06:19.590Z,1003.6
2023-03-15T06:07:22.963Z,1003.6
2023-03-15T06:08:26.680Z,1003.6
2023-03-15T06:09:29.875Z,1003.6
2023-03-15T06:10:33.270Z,1003.6
2023-03-15T06:11:38.026Z,1003.6
2023-03-15T06:12:41.094Z,1003.6
2023-03-15T06:13:43.643Z,1003.5
2023-03-15T06:14:46.798Z,1003.6
2023-03-15T06:15:49.330Z,1003.7
2023-03-15T06:16:52.627Z,1003.7
2023-03-15T06:17:57.026Z,1003.7
2023-03-15T06:19:00.274Z,1003.7
2023-03-15T06:20:03.547Z,1003.8
2023-03-15T06:21:06.827Z,1003.8
2023-03-15T06:22:09.544Z,1003.8
2023-03-15T06:23:12.993Z,1003.8
2023-03-15T06:24:16.204Z,1003.9
2023-03-15T06:25:19.562Z,1003.9
2023-03-15T06:26:23.307Z,1004
2023-03-15T06:27:27.469Z,1003.9
2023-03-15T06:28:30.816Z,1003.9
2023-03-15T06:29:33.549Z,1003.9
2023-03-15T06:30:36.761Z,1003.9
2023-03-15T06:31:39.877Z,1003.9
2023-03-15T06:32:43.400Z,1004
2023-03-15T06:33:46.576Z,1004
2023-03-15T06:34:49.960Z,1004.1
2023-03-15T06:35:53.208Z,1004.1
2023-03-15T06:36:56.089Z,1004.1
2023-03-15T06:37:59.821Z,1004.1
2023-03-15T06:39:02.386Z,1004.1
2023-03-15T06:40:05.481Z,1004.1
2023-03-15T06:41:08.981Z,1004.2
2023-03-15T06:42:11.596Z,1004.1
2023-03-15T06:43:15.795Z,1004.2
2023-03-15T06:44:17.946Z,1004.2
2023-03-15T06:45:21.950Z,1004.2
2023-03-15T06:46:25.493Z,1004.3
2023-03-15T06:47:28.503Z,1004.3
2023-03-15T06:48:31.687Z,1004.3
2023-03-15T06:49:34.677Z,1004.3
2023-03-15T06:50:47.920Z,1004.4
2023-03-15T06:51:51.474Z,1004.4
2023-03-15T06:52:55.180Z,1004.4
2023-03-15T06:53:58.604Z,1004.3
2023-03-15T06:55:02.003Z,1004.3
2023-03-15T06:56:05.095Z,1004.4
2023-03-15T06:57:08.078Z,1004.4
2023-03-15T06:58:11.115Z,1004.5
2023-03-15T06:59:15.428Z,1004.5
2023-03-15T07:00:19.049Z,1004.6
2023-03-15T07:01:22.476Z,1004.6
2023-03-15T07:02:26.091Z,1004.6
2023-03-15T07:03:29.876Z,1004.6
2023-03-15T07:04:33.249Z,1004.6
2023-03-15T07:05:36.314Z,1004.7
2023-03-15T07:06:39.398Z,1004.7
2023-03-15T07:07:43.046Z,1004.6
2023-03-15T07:08:46.369Z,1004.6
2023-03-15T07:09:49.233Z,1004.6
2023-03-15T07:10:52.030Z,1004.6
2023-03-15T07:11:55.157Z,1004.6
2023-03-15T07:12:58.139Z,1004.6
2023-03-15T07:14:00.718Z,1004.7
2023-03-15T07:15:04.954Z,1004.6
2023-03-15T07:16:08.612Z,1004.7
2023-03-15T07:17:12.335Z,1004.7
2023-03-15T07:18:15.791Z,1004.7
2023-03-15T07:19:19.568Z,1004.8
2023-03-15T07:20:22.971Z,1004.8
2023-03-15T07:21:25.661Z,1004.8
2023-03-15T07:22:29.450Z,1004.8
2023-03-15T07:23:33.101Z,1004.8
2023-03-15T07:24:36.134Z,1004.8
2023-03-15T07:25:55.547Z,1004.8
2023-03-15T07:26:59.274Z,1004.8
2023-03-15T07:28:02.544Z,1004.8
2023-03-15T07:29:05.987Z,1004.8
2023-03-15T07:30:10.175Z,1004.8
2023-03-15T07:31:12.737Z,1004.8
2023-03-15T07:32:15.873Z,1004.9
2023-03-15T07:33:19.765Z,1004.9
2023-03-15T07:34:23.053Z,1004.9
2023-03-15T07:35:26.412Z,1004.9
2023-03-15T07:36:29.713Z,1004.9
2023-03-15T07:37:32.981Z,1004.8
2023-03-15T07:38:36.279Z,1004.9
2023-03-15T07:39:39.277Z,1004.9
2023-03-15T07:40:42.353Z,1004.8
2023-03-15T07:41:45.425Z,1004.9
2023-03-15T07:42:48.603Z,1004.9
2023-03-15T07:43:51.678Z,1004.8
2023-03-15T07:44:55.188Z,1004.8
2023-03-15T07:45:59.379Z,1004.8
2023-03-15T07:47:02.715Z,1004.8
2023-03-15T07:48:06.538Z,1004.8
2023-03-15T07:49:10.049Z,1004.8
2023-03-15T07:50:17.033Z,1004.9
2023-03-15T07:51:19.944Z,1004.9
2023-03-15T07:52:23.034Z,1004.9
2023-03-15T07:53:25.502Z,1004.9
2023-03-15T07:54:29.872Z,1004.9
2023-03-15T07:55:33.610Z,1005
2023-03-15T07:56:37.349Z,1005
2023-03-15T07:57:40.737Z,1005
2023-03-15T07:58:44.450Z,1005.1
2023-03-15T07:59:47.904Z,1005.1
2023-03-15T08:00:51.002Z,1005
2023-03-15T08:01:55.284Z,1005.1
2023-03-15T08:02:59.181Z,1005.1
2023-03-15T08:04:03.111Z,1005.1
2023-03-15T08:05:05.867Z,1005.1
2023-03-15T08:06:09.181Z,1005.1
2023-03-15T08:07:12.915Z,1005.2
2023-03-15T08:08:15.938Z,1005.1
2023-03-15T08:09:19.674Z,1005.2
2023-03-15T08:10:22.465Z,1005.2
2023-03-15T08:11:26.117Z,1005.2
2023-03-15T08:12:29.264Z,1005.1
2023-03-15T08:13:32.997Z,1005.2
2023-03-15T08:14:36.457Z,1005.2
2023-03-15T08:15:39.534Z,1005.3
2023-03-15T08:16:43.111Z,1005.3
2023-03-15T08:17:47.703Z,1005.3
2023-03-15T08:18:51.191Z,1005.4
2023-03-15T08:19:54.879Z,1005.4
2023-03-15T08:20:58.537Z,1005.4
2023-03-15T08:22:01.935Z,1005.4
2023-03-15T08:23:05.020Z,1005.5
2023-03-15T08:24:08.081Z,1005.5
2023-03-15T08:25:11.529Z,1005.5
2023-03-15T08:26:14.564Z,1005.5
2023-03-15T08:27:17.653Z,1005.5
2023-03-15T08:28:20.944Z,1005.5
2023-03-15T08:29:23.938Z,1005.6
2023-03-15T08:30:28.156Z,1005.6
2023-03-15T08:31:31.839Z,1005.6
2023-03-15T08:32:35.776Z,1005.6
2023-03-15T08:33:40.369Z,1005.6
2023-03-15T08:34:43.501Z,1005.6
2023-03-15T08:35:46.871Z,1005.7
2023-03-15T08:36:50.454Z,1005.7
2023-03-15T08:37:54.779Z,1005.7
2023-03-15T08:38:57.769Z,1005.8
2023-03-15T08:40:02.808Z,1005.8
2023-03-15T08:41:06.194Z,1005.9
2023-03-15T08:42:08.746Z,1005.9
2023-03-15T08:43:11.595Z,1006
2023-03-15T08:44:15.114Z,1006
2023-03-15T08:45:18.737Z,1006
2023-03-15T08:46:21.550Z,1006
2023-03-15T08:47:25.120Z,1006
2023-03-15T08:48:28.421Z,1006
2023-03-15T08:49:32.696Z,1006.1
2023-03-15T08:50:35.775Z,1006
2023-03-15T08:51:38.514Z,1006
2023-03-15T08:52:42.262Z,1006.1
2023-03-15T08:53:45.661Z,1006.2
2023-03-15T08:54:48.250Z,1006.1
2023-03-15T08:55:51.623Z,1006.2
2023-03-15T08:56:55.062Z,1006.1
2023-03-15T08:57:58.415Z,1006.3
2023-03-15T08:59:02.223Z,1006.3
2023-03-15T09:00:05.330Z,1006.3
2023-03-15T09:01:08.844Z,1006.3
2023-03-15T09:02:13.090Z,1006.3
2023-03-15T09:03:16.875Z,1006.3
2023-03-15T09:04:20.712Z,1006.3
2023-03-15T09:05:25.429Z,1006.3
2023-03-15T09:06:28.495Z,1006.4
2023-03-15T09:07:32.151Z,1006.4
2023-03-15T09:08:35.542Z,1006.4
2023-03-15T09:09:38.760Z,1006.5
2023-03-15T09:10:42.793Z,1006.5
2023-03-15T09:11:45.877Z,1006.5
2023-03-15T09:12:49.219Z,1006.5
2023-03-15T09:13:52.601Z,1006.5
2023-03-15T09:14:55.962Z,1006.6
2023-03-15T09:15:59.302Z,1006.6
2023-03-15T09:17:02.568Z,1006.6
2023-03-15T09:18:06.375Z,1006.6
2023-03-15T09:19:09.572Z,1006.6
2023-03-15T09:20:12.724Z,1006.6
2023-03-15T09:21:17.017Z,1006.5
2023-03-15T09:22:39.752Z,1006.6
2023-03-15T09:23:43.552Z,1006.5
2023-03-15T09:24:49.792Z,1006.6
2023-03-15T09:25:54.468Z,1006.5
2023-03-15T09:26:57.828Z,1006.5
2023-03-15T09:28:01.053Z,1006.6
2023-03-15T09:29:04.245Z,1006.6
2023-03-15T09:30:07.301Z,1006.6
2023-03-15T09:31:10.486Z,1006.6
2023-03-15T09:32:13.581Z,1006.5
2023-03-15T09:33:17.262Z,1006.5
2023-03-15T09:34:23.514Z,1006.5
2023-03-15T09:35:44.738Z,1006.5
2023-03-15T09:36:49.298Z,1006.5
2023-03-15T09:37:52.670Z,1006.5
2023-03-15T09:38:55.543Z,1006.4
2023-03-15T09:39:58.541Z,1006.5
2023-03-15T09:41:01.673Z,1006.4
2023-03-15T09:42:06.920Z,1006.4
2023-03-15T09:43:10.322Z,1006.5
2023-03-15T09:44:13.854Z,1006.5
2023-03-15T09:45:17.497Z,1006.5
2023-03-15T09:46:20.806Z,1006.5
2023-03-15T09:47:24.521Z,1006.5
2023-03-15T09:48:26.975Z,1006.5
2023-03-15T09:49:29.827Z,1006.5
2023-03-15T09:50:32.684Z,1006.5
2023-03-15T09:51:35.820Z,1006.6
2023-03-15T09:52:40.076Z,1006.6
2023-03-15T09:53:44.128Z,1006.6
2023-03-15T09:54:48.167Z,1006.5
2023-03-15T09:55:51.600Z,1006.5
2023-03-15T09:56:54.379Z,1006.6
2023-03-15T09:57:57.543Z,1006.5
2023-03-15T09:59:01.087Z,1006.5
2023-03-15T10:00:03.804Z,1006.6
2023-03-15T10:01:06.788Z,1006.5
2023-03-15T10:02:10.917Z,1006.6
2023-03-15T10:03:14.215Z,1006.6
2023-03-15T10:04:17.325Z,1006.6
2023-03-15T10:05:20.426Z,1006.6
2023-03-15T10:06:23.273Z,1006.6
2023-03-15T10:07:26.568Z,1006.6
2023-03-15T10:08:30.717Z,1006.6
2023-03-15T10:09:33.899Z,1006.7
2023-03-15T10:10:37.046Z,1006.7
2023-03-15T10:11:40.851Z,1006.7
2023-03-15T10:12:44.918Z,1006.7
2023-03-15T10:13:48.545Z,1006.8
2023-03-15T10:14:52.019Z,1006.7
2023-03-15T10:15:55.780Z,1006.8
2023-03-15T10:16:59.300Z,1006.7
2023-03-15T10:18:02.681Z,1006.7
2023-03-15T10:19:06.099Z,1006.7
2023-03-15T10:20:09.307Z,1006.7
2023-03-15T10:21:12.684Z,1006.6
2023-03-15T10:22:15.736Z,1006.6
2023-03-15T10:23:19.870Z,1006.6
2023-03-15T10:24:24.024Z,1006.7
2023-03-15T10:25:27.715Z,1006.6
2023-03-15T10:26:31.429Z,1006.6
2023-03-15T10:27:34.595Z,1006.5
2023-03-15T10:28:37.807Z,1006.5
2023-03-15T10:29:41.533Z,1006.5
2023-03-15T10:30:44.973Z,1006.5
2023-03-15T10:31:48.828Z,1006.5
2023-03-15T10:32:52.545Z,1006.5
2023-03-15T10:33:55.905Z,1006.5
2023-03-15T10:34:59.577Z,1006.5
2023-03-15T10:36:11.845Z,1006.6
2023-03-15T10:37:15.653Z,1006.5
2023-03-15T10:38:18.733Z,1006.5
2023-03-15T10:39:22.803Z,1006.5
2023-03-15T10:40:26.989Z,1006.6
2023-03-15T10:41:30.417Z,1006.6
2023-03-15T10:42:33.154Z,1006.5
2023-03-15T10:43:35.967Z,1006.7
2023-03-15T10:44:39.050Z,1006.7
2023-03-15T10:45:42.784Z,1006.6
2023-03-15T10:46:45.724Z,1006.6
2023-03-15T10:48:00.530Z,1006.6
2023-03-15T10:49:03.971Z,1006.6
2023-03-15T10:50:07.730Z,1006.6
2023-03-15T10:51:12.632Z,1006.6
2023-03-15T10:52:16.038Z,1006.6
2023-03-15T10:53:19.205Z,1006.6
2023-03-15T10:54:22.405Z,1006.6
2023-03-15T10:55:25.850Z,1006.7
2023-03-15T10:56:30.041Z,1006.6
2023-03-15T10:57:33.636Z,1006.6
2023-03-15T10:58:37.505Z,1006.6
2023-03-15T10:59:40.614Z,1006.7
2023-03-15T11:00:44.335Z,1006.6
2023-03-15T11:01:47.196Z,1006.6
2023-03-15T11:02:50.894Z,1006.6
2023-03-15T11:03:54.826Z,1006.6
2023-03-15T11:04:58.179Z,1006.7
2023-03-15T11:06:01.285Z,1006.8
2023-03-15T11:07:04.420Z,1006.8
2023-03-15T11:08:07.768Z,1006.8
2023-03-15T11:09:11.578Z,1006.8
2023-03-15T11:10:14.566Z,1006.7
2023-03-15T11:11:18.055Z,1006.7
2023-03-15T11:12:22.269Z,1006.8
2023-03-15T11:13:25.982Z,1006.7
2023-03-15T11:14:29.414Z,1006.6
2023-03-15T11:15:33.029Z,1006.6
2023-03-15T11:16:36.578Z,1006.6
2023-03-15T11:17:40.177Z,1006.7
2023-03-15T11:18:43.361Z,1006.7
2023-03-15T11:19:46.369Z,1006.6
2023-03-15T11:20:50.377Z,1006.6
2023-03-15T11:21:53.751Z,1006.7
2023-03-15T11:22:56.476Z,1006.6
2023-03-15T11:23:59.478Z,1006.7
2023-03-15T11:25:02.710Z,1006.7
2023-03-15T11:26:05.929Z,1006.7
2023-03-15T11:27:10.757Z,1006.7
2023-03-15T11:28:15.049Z,1006.7
2023-03-15T11:29:18.060Z,1006.7
2023-03-15T11:30:20.811Z,1006.6
2023-03-15T11:31:24.211Z,1006.6
2023-03-15T11:32:27.035Z,1006.7
2023-03-15T11:33:30.410Z,1006.7
2023-03-15T11:34:33.474Z,1006.6
2023-03-15T11:35:37.200Z,1006.7
2023-03-15T11:36:39.503Z,1006.7
2023-03-15T11:37:41.955Z,1006.6
2023-03-15T11:38:44.867Z,1006.6
2023-03-15T11:39:51.679Z,1006.6
2023-03-15T11:41:19.232Z,1006.6
2023-03-15T11:42:22.944Z,1006.6
2023-03-15T11:43:27.119Z,1006.6
2023-03-15T11:44:29.852Z,1006.6
2023-03-15T11:45:33.630Z,1006.6
2023-03-15T11:46:37.806Z,1006.6
2023-03-15T11:47:41.542Z,1006.6
2023-03-15T11:48:44.854Z,1006.6
2023-03-15T11:49:48.239Z,1006.6
2023-03-15T11:50:51.258Z,1006.6
2023-03-15T11:51:54.405Z,1006.6
2023-03-15T11:52:57.755Z,1006.7
2023-03-15T11:54:01.221Z,1006.7
2023-03-15T11:55:04.380Z,1006.7
2023-03-15T11:56:07.437Z,1006.7
2023-03-15T11:57:10.515Z,1006.7
2023-03-15T11:58:13.881Z,1006.7
2023-03-15T11:59:18.099Z,1006.7
2023-03-15T12:00:21.628Z,1006.7
2023-03-15T12:01:24.786Z,1006.8
2023-03-15T12:02:28.593Z,1006.7
2023-03-15T12:03:32.472Z,1006.8
2023-03-15T12:04:36.493Z,1006.8
2023-03-15T12:05:39.341Z,1006.9
2023-03-15T12:06:42.699Z,1006.8
2023-03-15T12:07:46.455Z,1006.9
2023-03-15T12:08:49.948Z,1006.9
2023-03-15T12:09:53.359Z,1006.9
2023-03-15T12:10:56.605Z,1006.9
2023-03-15T12:12:00.174Z,1006.9
2023-03-15T12:13:03.186Z,1006.9
2023-03-15T12:14:07.275Z,1006.8
2023-03-15T12:15:11.545Z,1006.9
2023-03-15T12:16:15.307Z,1006.8
2023-03-15T12:17:18.203Z,1006.7
2023-03-15T12:18:21.278Z,1006.8
2023-03-15T12:19:25.144Z,1006.8
2023-03-15T12:20:28.935Z,1006.8
2023-03-15T12:21:32.332Z,1006.8
2023-03-15T12:22:35.839Z,1006.8
2023-03-15T12:23:39.582Z,1006.7
2023-03-15T12:24:42.410Z,1006.7
2023-03-15T12:25:55.604Z,1006.7
2023-03-15T12:26:58.492Z,1006.6
2023-03-15T12:28:01.215Z,1006.7
2023-03-15T12:29:04.308Z,1006.7
2023-03-15T12:30:06.489Z,1006.6
2023-03-15T12:31:10.819Z,1006.6
2023-03-15T12:32:14.671Z,1006.6
2023-03-15T12:33:18.084Z,1006.7
2023-03-15T12:34:21.168Z,1006.7
2023-03-15T12:35:24.550Z,1006.8
2023-03-15T12:36:27.836Z,1006.8
2023-03-15T12:37:30.989Z,1006.7
2023-03-15T12:38:33.741Z,1006.8
2023-03-15T12:39:37.277Z,1006.8
2023-03-15T12:40:40.609Z,1006.8
2023-03-15T12:41:43.706Z,1006.8
2023-03-15T12:42:46.895Z,1006.8
2023-03-15T12:43:50.322Z,1006.9
2023-03-15T12:44:53.720Z,1006.8
2023-03-15T12:45:57.296Z,1006.8
2023-03-15T12:47:01.659Z,1006.8
2023-03-15T12:48:04.586Z,1006.9
2023-03-15T12:49:08.690Z,1006.9
2023-03-15T12:50:11.450Z,1006.9
2023-03-15T12:51:14.945Z,1006.9
2023-03-15T12:52:18.094Z,1006.8
2023-03-15T12:53:21.533Z,1006.8
2023-03-15T12:54:24.835Z,1006.8
2023-03-15T12:55:28.291Z,1006.8
2023-03-15T12:56:31.670Z,1006.9
2023-03-15T12:57:35.040Z,1006.9
2023-03-15T12:58:37.959Z,1006.9
2023-03-15T12:59:41.750Z,1006.9
2023-03-15T13:00:44.892Z,1006.8
2023-03-15T13:01:48.343Z,1007
2023-03-15T13:02:53.093Z,1006.9
2023-03-15T13:03:56.994Z,1007
2023-03-15T13:05:01.024Z,1007
2023-03-15T13:06:04.943Z,1007
2023-03-15T13:07:08.058Z,1007.1
2023-03-15T13:08:11.729Z,1007.2
2023-03-15T13:09:15.135Z,1007.1
2023-03-15T13:10:18.126Z,1007.1
2023-03-15T13:11:21.862Z,1007.1
2023-03-15T13:12:24.934Z,1007.1
2023-03-15T13:13:28.285Z,1007.2
2023-03-15T13:14:31.673Z,1007.1
2023-03-15T13:15:35.282Z,1007.1
2023-03-15T13:16:42.626Z,1007.1
2023-03-15T13:17:45.542Z,1007.2
2023-03-15T13:18:49.736Z,1007.1
2023-03-15T13:19:53.207Z,1007.2